createdAt,value
2018-01-25T00:00:22.251Z,91.3
2018-01-25T00:01:25.040Z,91.2
2018-01-25T00:02:27.815Z,91.2
2018-01-25T00:03:30.311Z,91.2
2018-01-25T00:04:32.825Z,91.3
2018-01-25T00:05:35.310Z,91.2
2018-01-25T00:06:38.118Z,91.3
2018-01-25T00:07:40.609Z,91.3
2018-01-25T00:08:43.107Z,91.3
2018-01-25T00:09:45.612Z,91.2
2018-01-25T00:10:48.113Z,91.2
2018-01-25T00:11:50.895Z,91.3
2018-01-25T00:12:53.409Z,91.2
2018-01-25T00:13:55.890Z,91.2
2018-01-25T00:14:58.412Z,91.2
2018-01-25T00:16:01.191Z,91.2
2018-01-25T00:17:03.694Z,91.3
2018-01-25T00:18:06.193Z,91.3
2018-01-25T00:19:09.040Z,91.4
2018-01-25T00:20:11.481Z,91.4
2018-01-25T00:21:14.269Z,91.3
2018-01-25T00:22:17.066Z,91.2
2018-01-25T00:23:19.583Z,91.2
2018-01-25T00:24:22.083Z,91.2
2018-01-25T00:25:24.586Z,91.2
2018-01-25T00:26:27.086Z,91.3
2018-01-25T00:27:29.921Z,91.4
2018-01-25T00:28:32.416Z,91.4
2018-01-25T00:29:35.227Z,91.3
2018-01-25T00:30:37.715Z,91.3
2018-01-25T00:31:40.215Z,91.2
2018-01-25T00:32:42.723Z,91.1
2018-01-25T00:33:45.220Z,91.1
2018-01-25T00:34:47.726Z,91.1
2018-01-25T00:35:50.226Z,91.1
2018-01-25T00:36:53.010Z,91
2018-01-25T00:37:55.522Z,91
2018-01-25T00:38:58.310Z,90.9
2018-01-25T00:40:01.088Z,91
2018-01-25T00:41:03.590Z,91
2018-01-25T00:42:06.090Z,90.9
2018-01-25T00:43:08.587Z,90.9
2018-01-25T00:44:11.381Z,90.9
2018-01-25T00:45:14.145Z,90.5
2018-01-25T00:46:16.642Z,90.4
2018-01-25T00:47:19.150Z,90.2
2018-01-25T00:48:21.937Z,90.3
2018-01-25T00:49:24.439Z,90.5
2018-01-25T00:50:26.927Z,90.5
2018-01-25T00:51:29.421Z,90.4
2018-01-25T00:52:32.212Z,90.5
2018-01-25T00:53:34.717Z,90.7
2018-01-25T00:54:37.228Z,90.6
2018-01-25T00:55:40.020Z,90.7
2018-01-25T00:56:42.503Z,90.6
2018-01-25T00:57:45.014Z,90.7
2018-01-25T00:58:47.507Z,90.6
2018-01-25T00:59:50.009Z,90.6
2018-01-25T01:00:52.507Z,90.5
2018-01-25T01:01:55.287Z,90.4
2018-01-25T01:02:57.788Z,90.5
2018-01-25T01:04:00.585Z,90.5
2018-01-25T01:05:03.071Z,90.4
2018-01-25T01:06:05.578Z,90.6
2018-01-25T01:07:08.358Z,90.6
2018-01-25T01:08:10.849Z,90.7
2018-01-25T01:09:13.360Z,90.6
2018-01-25T01:10:15.857Z,90.6
2018-01-25T01:11:18.342Z,90.8
2018-01-25T01:12:20.845Z,90.8
2018-01-25T01:13:23.345Z,90.7
2018-01-25T01:14:25.839Z,90.6
2018-01-25T01:15:28.337Z,90.5
2018-01-25T01:16:30.823Z,90.4
2018-01-25T01:17:33.311Z,90.5
2018-01-25T01:18:35.825Z,90.6
2018-01-25T01:19:38.326Z,90.3
2018-01-25T01:20:40.804Z,90.4
2018-01-25T01:21:43.599Z,90.4
2018-01-25T01:22:46.102Z,90.4
2018-01-25T01:23:48.600Z,90.4
2018-01-25T01:24:51.101Z,90.5
2018-01-25T01:25:53.603Z,90.6
2018-01-25T01:26:56.089Z,90.6
2018-01-25T01:27:58.596Z,90.6
2018-01-25T01:29:01.386Z,90.6
2018-01-25T01:30:03.873Z,90.6
2018-01-25T01:31:06.380Z,90.5
2018-01-25T01:32:08.875Z,90.4
2018-01-25T01:33:11.372Z,90.4
2018-01-25T01:34:14.165Z,90.4
2018-01-25T01:35:16.943Z,90.4
2018-01-25T01:36:19.446Z,90.5
2018-01-25T01:37:21.954Z,90.5
2018-01-25T01:38:24.452Z,90.5
2018-01-25T01:39:26.947Z,90.5
2018-01-25T01:40:29.449Z,90.5
2018-01-25T01:41:31.950Z,90.4
2018-01-25T01:42:34.753Z,90.4
2018-01-25T01:43:37.248Z,90.3
2018-01-25T01:44:39.728Z,90.4
2018-01-25T01:45:42.522Z,90.4
2018-01-25T01:46:45.022Z,90.4
2018-01-25T01:47:47.522Z,90.3
2018-01-25T01:48:50.016Z,90.3
2018-01-25T01:49:52.511Z,90.4
2018-01-25T01:50:55.011Z,90.3
2018-01-25T01:51:57.501Z,90.3
2018-01-25T01:52:59.993Z,90.3
2018-01-25T01:54:02.500Z,90.3
2018-01-25T01:55:05.272Z,90.3
2018-01-25T01:56:07.768Z,90.4
2018-01-25T01:57:10.264Z,90.4
2018-01-25T01:58:12.765Z,90.4
2018-01-25T01:59:15.556Z,90.3
2018-01-25T02:00:18.060Z,90.2
2018-01-25T02:01:20.560Z,90.2
2018-01-25T02:02:23.353Z,90.3
2018-01-25T02:03:25.854Z,90.3
2018-01-25T02:04:28.353Z,90.4
2018-01-25T02:05:30.852Z,90.4
2018-01-25T02:06:33.342Z,90.3
2018-01-25T02:07:35.841Z,90.3
2018-01-25T02:08:38.347Z,90.3
2018-01-25T02:09:40.870Z,90.3
2018-01-25T02:10:43.334Z,90.4
2018-01-25T02:11:46.112Z,90.4
2018-01-25T02:12:48.615Z,90.5
2018-01-25T02:13:51.403Z,90.5
2018-01-25T02:14:53.904Z,90.5
2018-01-25T02:15:56.390Z,90.5
2018-01-25T02:16:59.183Z,90.4
2018-01-25T02:18:01.972Z,90.4
2018-01-25T02:19:04.459Z,90.4
2018-01-25T02:20:06.967Z,90.4
2018-01-25T02:21:09.459Z,90.5
2018-01-25T02:22:11.951Z,90.5
2018-01-25T02:23:14.456Z,90.5
2018-01-25T02:24:16.951Z,90.5
2018-01-25T02:25:19.435Z,90.5
2018-01-25T02:26:22.121Z,90.5
2018-01-25T02:27:28.454Z,90.5
2018-01-25T02:31:31.829Z,90.6
2018-01-25T02:33:32.521Z,90.5
2018-01-25T02:37:18.277Z,90.4
2018-01-25T02:40:10.885Z,90.4
2018-01-25T02:41:14.434Z,90.4
2018-01-25T02:42:25.397Z,90.3
2018-01-25T02:44:34.684Z,90.4
2018-01-25T02:45:42.747Z,90.4
2018-01-25T02:47:54.283Z,90.4
2018-01-25T02:48:57.288Z,90.3
2018-01-25T03:02:36.475Z,90.4
2018-01-25T03:04:24.804Z,90.4
2018-01-25T03:05:27.306Z,90.4
2018-01-25T03:06:29.795Z,90.4
2018-01-25T03:07:32.301Z,90.4
2018-01-25T03:08:34.789Z,90.3
2018-01-25T03:09:37.288Z,90.4
2018-01-25T03:10:39.789Z,90.4
2018-01-25T03:11:42.578Z,90.4
2018-01-25T03:12:45.075Z,90.4
2018-01-25T03:13:47.570Z,90.4
2018-01-25T03:14:50.057Z,90.4
2018-01-25T03:15:52.576Z,90.5
2018-01-25T03:16:55.080Z,90.5
2018-01-25T03:17:57.563Z,90.4
2018-01-25T03:19:00.066Z,90.4
2018-01-25T03:20:02.568Z,90.4
2018-01-25T03:21:05.349Z,90.4
2018-01-25T03:22:07.851Z,90.5
2018-01-25T03:23:10.339Z,90.5
2018-01-25T03:24:12.819Z,90.6
2018-01-25T03:25:15.336Z,90.5
2018-01-25T03:26:17.832Z,90.5
2018-01-25T03:27:20.318Z,90.4
2018-01-25T03:28:22.820Z,90.4
2018-01-25T03:29:25.310Z,90.3
2018-01-25T03:30:27.823Z,90.3
2018-01-25T03:31:30.338Z,90.3
2018-01-25T03:32:32.818Z,90.2
2018-01-25T03:33:35.317Z,90.3
2018-01-25T03:34:37.818Z,90.4
2018-01-25T03:35:40.657Z,90.4
2018-01-25T03:36:43.245Z,90.4
2018-01-25T03:37:46.102Z,90.4
2018-01-25T17:52:31.015Z,88.5
2018-01-25T17:55:24.649Z,89.8
2018-01-25T17:56:27.797Z,89.2
2018-01-25T17:57:30.733Z,89.6
2018-01-25T17:58:33.520Z,89.8
2018-01-25T17:59:37.239Z,89.7
2018-01-25T18:00:40.074Z,89.6
2018-01-25T18:01:43.609Z,89.8
2018-01-25T18:02:47.914Z,89.6
2018-01-25T18:03:50.898Z,89.6
2018-01-25T18:04:53.712Z,89.6
2018-01-25T18:05:56.561Z,89.6
2018-01-25T18:06:59.671Z,89.6
2018-01-25T18:08:02.675Z,89.5
2018-01-25T18:09:05.350Z,89.4
2018-01-25T18:10:08.057Z,89.5
2018-01-25T18:11:10.860Z,89.4
2018-01-25T18:12:14.025Z,89.3
2018-01-25T18:13:16.703Z,89.4
2018-01-25T18:14:19.458Z,89.3
2018-01-25T18:15:22.748Z,89.4
2018-01-25T18:16:25.862Z,89.4
2018-01-25T18:17:29.459Z,89.5
2018-01-25T18:18:32.652Z,89.5
2018-01-25T18:19:36.934Z,89.6
2018-01-25T18:20:40.435Z,89.5
2018-01-25T18:21:45.517Z,89.4
2018-01-25T18:22:48.774Z,89.4
2018-01-25T18:23:52.121Z,89.4
2018-01-25T18:24:55.652Z,89.4
2018-01-25T18:25:58.981Z,89.6
2018-01-25T18:27:38.879Z,89.6
2018-01-25T18:29:03.425Z,89.6
2018-01-25T18:30:44.461Z,89.5
2018-01-25T18:32:35.157Z,89.6
2018-01-25T18:34:12.722Z,89.6
2018-01-25T18:36:47.245Z,89.9
2018-01-25T18:38:02.549Z,89.9
2018-01-25T18:39:05.059Z,89.9
2018-01-25T18:40:07.849Z,89.8
2018-01-25T18:41:10.368Z,89.6
2018-01-25T18:42:13.166Z,89.7
2018-01-25T18:43:15.663Z,89.8
2018-01-25T18:44:18.171Z,89.7
2018-01-25T18:45:20.984Z,89.6
2018-01-25T18:46:23.490Z,89.5
2018-01-25T18:47:25.989Z,89.6
2018-01-25T18:48:28.508Z,89.5
2018-01-25T18:49:31.317Z,89.4
2018-01-25T18:50:33.824Z,89.5
2018-01-25T18:51:36.328Z,89.6
2018-01-25T18:52:38.845Z,89.4
2018-01-25T18:53:41.349Z,89.5
2018-01-25T18:54:43.861Z,89.5
2018-01-25T18:55:46.385Z,89.4
2018-01-25T18:56:49.162Z,89.4
2018-01-25T18:57:51.668Z,89.4
2018-01-25T18:58:54.181Z,89.4
2018-01-25T18:59:56.682Z,89.4
2018-01-25T19:00:59.199Z,89.4
2018-01-25T19:02:02.021Z,89.5
2018-01-25T19:03:04.816Z,89.6
2018-01-25T19:04:07.319Z,89.6
2018-01-25T19:05:09.816Z,89.7
2018-01-25T19:06:12.322Z,89.6
2018-01-25T19:07:14.823Z,89.6
2018-01-25T19:08:17.316Z,89.4
2018-01-25T19:09:20.106Z,89.3
2018-01-25T19:10:22.600Z,89
2018-01-25T19:11:25.100Z,89.1
2018-01-25T19:12:27.596Z,89.3
2018-01-25T19:13:30.091Z,89.2
2018-01-25T19:14:32.592Z,89.1
2018-01-25T19:15:35.090Z,89.2
2018-01-25T19:16:37.598Z,89.1
2018-01-25T19:17:40.082Z,88.9
2018-01-25T19:18:42.576Z,88.9
2018-01-25T19:19:45.068Z,89.3
2018-01-25T19:20:47.569Z,89.3
2018-01-25T19:21:50.062Z,89.3
2018-01-25T19:22:52.598Z,89.3
2018-01-25T19:23:55.056Z,89.4
2018-01-25T19:24:57.548Z,89.4
2018-01-25T19:26:00.038Z,89.3
2018-01-25T19:27:02.825Z,89.1
2018-01-25T19:28:05.320Z,89
2018-01-25T19:29:08.101Z,88.9
2018-01-25T19:30:10.604Z,89
2018-01-25T19:31:13.097Z,89.1
2018-01-25T19:32:15.601Z,89.2
2018-01-25T19:33:18.085Z,89.2
2018-01-25T19:34:20.580Z,89.2
2018-01-25T19:35:23.080Z,89.2
2018-01-25T19:36:25.579Z,89.3
2018-01-25T19:37:28.073Z,89.3
2018-01-25T19:38:30.570Z,89.3
2018-01-25T19:39:33.348Z,89.4
2018-01-25T19:40:35.862Z,89.4
2018-01-25T19:41:38.360Z,89.4
2018-01-25T19:42:40.841Z,89.5
2018-01-25T19:43:43.339Z,89.4
2018-01-25T19:44:46.119Z,89.4
2018-01-25T19:45:48.614Z,89.3
2018-01-25T19:46:51.125Z,89.2
2018-01-25T19:47:53.597Z,89.1
2018-01-25T19:48:56.383Z,89.2
2018-01-25T19:49:58.886Z,89.3
2018-01-25T19:51:01.374Z,89.4
2018-01-25T19:52:03.881Z,89.3
2018-01-25T19:53:06.369Z,89.3
2018-01-25T19:54:08.860Z,89.2
2018-01-25T19:55:11.363Z,89.2
2018-01-25T19:56:13.861Z,89.1
2018-01-25T19:57:16.342Z,89.1
2018-01-25T19:58:18.856Z,89.1
2018-01-25T19:59:21.639Z,89
2018-01-25T20:00:24.134Z,89
2018-01-25T20:01:26.618Z,89
2018-01-25T20:02:29.120Z,89
2018-01-25T20:03:31.611Z,88.9
2018-01-25T20:04:34.389Z,89.1
2018-01-25T20:05:36.891Z,89
2018-01-25T20:06:39.377Z,89.2
2018-01-25T20:07:41.879Z,89.1
2018-01-25T20:08:44.379Z,88.9
2018-01-25T20:09:46.874Z,89
2018-01-25T20:10:49.364Z,89.1
2018-01-25T20:11:51.879Z,89
2018-01-25T20:12:54.365Z,89.1
2018-01-25T20:13:56.866Z,89.2
2018-01-25T20:14:59.377Z,89.3
2018-01-25T20:16:01.858Z,89.3
2018-01-25T20:17:04.359Z,89.2
2018-01-25T20:18:06.853Z,89.1
2018-01-25T20:19:09.355Z,89
2018-01-25T20:20:11.850Z,88.8
2018-01-25T20:21:14.351Z,88.8
2018-01-25T20:22:16.843Z,88.9
2018-01-25T20:23:19.357Z,88.6
2018-01-25T20:24:21.855Z,88.5
2018-01-25T20:25:24.347Z,88.5
2018-01-25T20:26:26.847Z,88.6
2018-01-25T20:27:29.635Z,88.6
2018-01-25T20:28:32.121Z,88.7
2018-01-25T20:29:34.621Z,88.7
2018-01-25T20:30:37.110Z,88.5
2018-01-25T20:31:39.612Z,88.5
2018-01-25T20:32:42.097Z,88.5
2018-01-25T20:33:44.594Z,88.6
2018-01-25T20:34:47.377Z,88.8
2018-01-25T20:35:49.881Z,88.8
2018-01-25T20:36:52.661Z,88.8
2018-01-25T20:37:55.453Z,88.8
2018-01-25T20:38:57.935Z,88.8
2018-01-25T20:40:00.756Z,88.6
2018-01-25T20:41:03.250Z,88.8
2018-01-25T20:42:05.753Z,88.8
2018-01-25T20:43:08.249Z,88.8
2018-01-25T20:44:10.754Z,88.8
2018-01-25T20:45:13.249Z,89
2018-01-25T20:46:15.752Z,89.1
2018-01-25T20:47:18.222Z,89
2018-01-25T20:48:20.719Z,89
2018-01-25T20:49:23.227Z,88.9
2018-01-25T20:50:25.714Z,89
2018-01-25T20:51:28.210Z,89
2018-01-25T20:52:30.700Z,89
2018-01-25T20:53:33.196Z,89
2018-01-25T20:54:35.702Z,88.9
2018-01-25T20:55:38.189Z,88.7
2018-01-25T20:56:40.672Z,88.8
2018-01-25T20:57:43.476Z,88.7
2018-01-25T20:58:45.974Z,88.9
2018-01-25T20:59:48.756Z,88.9
2018-01-25T21:00:51.254Z,88.8
2018-01-25T21:01:54.042Z,88.7
2018-01-25T21:02:56.541Z,88.6
2018-01-25T21:03:59.021Z,88.5
2018-01-25T21:05:01.571Z,88.5
2018-01-25T21:06:04.358Z,88.5
2018-01-25T21:07:06.853Z,88.6
2018-01-25T21:08:09.345Z,88.5
2018-01-25T21:09:11.847Z,88.6
2018-01-25T21:10:14.339Z,88.8
2018-01-25T21:11:16.858Z,88.6
2018-01-25T21:12:19.331Z,88.3
2018-01-25T21:13:21.845Z,88.3
2018-01-25T21:14:24.340Z,88.3
2018-01-25T21:15:26.828Z,88.3
2018-01-25T21:16:29.611Z,88.3
2018-01-25T21:17:32.106Z,88.5
2018-01-25T21:18:34.599Z,88.5
2018-01-25T21:19:37.109Z,88.6
2018-01-25T21:20:39.593Z,88.7
2018-01-25T21:21:42.390Z,88.8
2018-01-25T21:22:44.898Z,88.8
2018-01-25T21:23:47.390Z,88.7
2018-01-25T21:24:49.885Z,88.6
2018-01-25T21:25:52.387Z,88.6
2018-01-25T21:26:54.888Z,88.3
2018-01-25T21:27:57.366Z,88.3
2018-01-25T21:28:59.862Z,88.2
2018-01-25T21:30:02.364Z,88.2
2018-01-25T21:31:04.864Z,88.3
2018-01-25T21:32:07.357Z,88.4
2018-01-25T21:33:09.859Z,88.5
2018-01-25T21:34:12.351Z,88.6
2018-01-25T21:35:14.854Z,88.5
2018-01-25T21:36:17.354Z,88.4
2018-01-25T21:37:19.837Z,88.3
2018-01-25T21:38:22.338Z,88.4
2018-01-25T21:39:24.830Z,88.3
2018-01-25T21:40:27.331Z,88.2
2018-01-25T21:41:29.819Z,88.2
2018-01-25T21:42:32.318Z,88.1
2018-01-25T21:43:34.812Z,88.2
2018-01-25T21:44:37.319Z,88.2
2018-01-25T21:45:39.822Z,88.2
2018-01-25T21:46:42.307Z,88.1
2018-01-25T21:47:45.125Z,88.2
2018-01-25T21:48:48.212Z,88.2
2018-01-25T21:49:50.710Z,88.3
2018-01-25T21:50:53.494Z,88.3
2018-01-25T21:51:55.983Z,88.2
2018-01-25T21:52:58.475Z,88.2
2018-01-25T21:54:00.974Z,88.2
2018-01-25T21:55:03.464Z,88.2
2018-01-25T21:56:05.957Z,88.2
2018-01-25T21:57:08.750Z,88.1
2018-01-25T21:58:11.844Z,88.1
2018-01-25T21:59:14.626Z,88.1
2018-01-25T22:00:17.141Z,87.9
2018-01-25T22:01:19.616Z,87.9
2018-01-25T22:02:22.113Z,87.9
2018-01-25T22:03:24.617Z,87.9
2018-01-25T22:04:27.098Z,88
2018-01-25T22:05:29.596Z,87.9
2018-01-25T22:06:32.092Z,88
2018-01-25T22:07:34.580Z,88.1
2018-01-25T22:08:37.089Z,88.1
2018-01-25T22:09:39.589Z,88.1
2018-01-25T22:10:42.070Z,88.2
2018-01-25T22:11:44.580Z,88.2
2018-01-25T22:12:47.062Z,88.2
2018-01-25T22:13:49.563Z,88
2018-01-25T22:14:52.353Z,88
2018-01-25T22:15:54.847Z,88.1
2018-01-25T22:16:57.343Z,88.1
2018-01-25T22:17:59.851Z,88.1
2018-01-25T22:19:02.329Z,88.2
2018-01-25T22:20:04.844Z,88.3
2018-01-25T22:21:07.329Z,88.5
2018-01-25T22:22:09.828Z,88.6
2018-01-25T22:23:12.323Z,88.6
2018-01-25T22:24:14.820Z,88.7
2018-01-25T22:25:17.312Z,88.6
2018-01-25T22:26:19.808Z,88.4
2018-01-25T22:27:22.308Z,88.4
2018-01-25T22:28:24.811Z,88.2
2018-01-25T22:29:27.300Z,88.2
2018-01-25T22:30:29.795Z,88.1
2018-01-25T22:31:32.589Z,88.1
2018-01-25T22:32:35.072Z,88.1
2018-01-25T22:33:37.569Z,88
2018-01-25T22:34:40.067Z,88.1
2018-01-25T22:35:42.554Z,88.2
2018-01-25T22:36:45.094Z,88.2
2018-01-25T22:37:47.553Z,88.2
2018-01-25T22:38:50.048Z,88.1
2018-01-25T22:39:52.547Z,88
2018-01-25T22:40:55.043Z,88
2018-01-25T22:41:57.542Z,88
2018-01-25T22:43:00.042Z,88.1
2018-01-25T22:44:02.526Z,88
2018-01-25T22:45:05.020Z,88
2018-01-25T22:46:07.525Z,88
2018-01-25T22:47:10.017Z,88
2018-01-25T22:48:12.509Z,87.9
2018-01-25T22:49:15.006Z,87.9
2018-01-25T22:50:17.494Z,87.7
2018-01-25T22:51:20.007Z,87.6
2018-01-25T22:52:22.506Z,87.6
2018-01-25T22:53:25.263Z,87.6
2018-01-25T22:54:27.762Z,87.6
2018-01-25T22:55:30.265Z,87.5
2018-01-25T22:56:32.753Z,87.3
2018-01-25T22:57:35.244Z,87.3
2018-01-25T22:58:37.757Z,87.5
2018-01-25T22:59:40.250Z,87.4
2018-01-25T23:00:42.736Z,87.6
2018-01-25T23:01:45.241Z,87.7
2018-01-25T23:02:47.732Z,87.7
2018-01-25T23:03:50.230Z,87.9
2018-01-25T23:04:52.726Z,87.9
2018-01-25T23:05:55.216Z,87.8
2018-01-25T23:06:57.717Z,87.9
2018-01-25T23:08:00.212Z,87.8
2018-01-25T23:09:02.696Z,87.9
2018-01-25T23:10:05.485Z,87.9
2018-01-25T23:11:07.993Z,87.9
2018-01-25T23:12:10.774Z,88
2018-01-25T23:13:13.269Z,88
2018-01-25T23:14:15.762Z,88
2018-01-25T23:15:18.253Z,88
2018-01-25T23:16:20.749Z,88.2
2018-01-25T23:17:23.238Z,88.2
2018-01-25T23:18:25.724Z,88.1
2018-01-25T23:19:28.231Z,87.9
2018-01-25T23:20:30.728Z,87.9
2018-01-25T23:21:33.510Z,87.9
2018-01-25T23:22:35.999Z,88
2018-01-25T23:23:38.501Z,88.1
2018-01-25T23:24:40.993Z,88
2018-01-25T23:25:43.478Z,88.1
2018-01-25T23:26:45.981Z,88.2
2018-01-25T23:27:48.473Z,88.1
2018-01-25T23:28:50.988Z,88
2018-01-25T23:29:53.763Z,88.1
2018-01-25T23:30:56.262Z,88.2
2018-01-25T23:31:58.739Z,88.2
2018-01-25T23:33:01.259Z,88.2
2018-01-25T23:34:03.740Z,88.3
2018-01-25T23:35:06.239Z,88.3
2018-01-25T23:36:09.036Z,88.4
2018-01-25T23:37:11.529Z,88.3
2018-01-25T23:38:14.314Z,88.2
2018-01-25T23:39:16.817Z,88.2
2018-01-25T23:40:19.304Z,88.1
2018-01-25T23:41:21.813Z,88.2
2018-01-25T23:42:24.308Z,88.1
2018-01-25T23:43:26.792Z,88.1
2018-01-25T23:44:29.293Z,88.1
2018-01-25T23:45:31.786Z,88.2
2018-01-25T23:46:34.278Z,88.2
2018-01-25T23:47:36.764Z,88.2
2018-01-25T23:48:39.259Z,88.2
2018-01-25T23:49:41.753Z,88.2
2018-01-25T23:50:44.267Z,88.2
2018-01-25T23:51:46.756Z,88.1
2018-01-25T23:52:49.253Z,88.1
2018-01-25T23:53:51.744Z,87.8
2018-01-25T23:54:54.242Z,87.8
2018-01-25T23:55:56.742Z,87.8
2018-01-25T23:56:59.226Z,87.8
2018-01-25T23:58:01.730Z,87.8
2018-01-25T23:59:04.216Z,87.8
